Time;durP1;ratioP1;P1;durP2;ratioP2;P2;SDS_P1;SDS_P2;PMS_P1;PMS_P2;Temp;Humidity;BMP_temperature;BMP_pressure;BME280_temperature;BME280_humidity;BME280_pressure;Samples;Min_cycle;Max_cycle;Signal;HPM_P1;HPM_P2
2022/11/16 00:01:53;;;;;;;110.65;53.42;;;;;;;13.81;69.02;100276.34;4947626;28;120365;-75
2022/11/16 00:04:20;;;;;;;109.55;54.25;;;;;;;13.84;69.00;100286.41;4938837;28;120009;-73
2022/11/16 00:06:48;;;;;;;110.53;54.43;;;;;;;13.83;69.09;100276.63;4941325;28;120019;-73
2022/11/16 00:09:22;;;;;;;105.15;53.38;;;;;;;13.79;68.80;100270.56;4943549;28;119758;-72
2022/11/16 00:11:51;;;;;;;100.40;51.55;;;;;;;13.78;68.52;100269.78;4942660;28;119997;-72
2022/11/16 00:14:18;;;;;;;97.23;50.60;;;;;;;13.77;68.72;100279.31;4944755;28;119803;-73
2022/11/16 00:16:44;;;;;;;94.40;49.30;;;;;;;13.74;68.68;100277.53;4943210;28;122070;-73
2022/11/16 00:19:11;;;;;;;90.00;49.40;;;;;;;13.72;68.56;100271.72;4946317;28;119779;-73
2022/11/16 00:21:37;;;;;;;95.57;49.35;;;;;;;13.71;68.36;100263.91;4945861;28;119712;-72
2022/11/16 00:24:03;;;;;;;92.32;49.17;;;;;;;13.72;68.76;100248.91;4945393;28;119673;-75
2022/11/16 00:26:29;;;;;;;99.65;49.70;;;;;;;13.69;68.53;100266.41;4944247;28;120492;-75
2022/11/16 00:29:15;;;;;;;105.15;50.78;;;;;;;13.71;68.69;100263.91;4943295;28;120369;-75
2022/11/16 00:31:41;;;;;;;100.20;50.40;;;;;;;13.71;69.00;100263.91;4944422;28;119547;-75
2022/11/16 00:34:07;;;;;;;96.68;50.22;;;;;;;13.74;68.71;100257.47;4944945;28;120049;-75
2022/11/16 00:36:32;;;;;;;99.13;50.22;;;;;;;13.77;68.79;100262.75;4951389;28;119751;-72
2022/11/16 00:38:58;;;;;;;97.25;49.60;;;;;;;13.79;68.69;100254.78;4952242;28;119699;-75
2022/11/16 00:41:24;;;;;;;96.17;49.60;;;;;;;13.83;68.35;100260.84;4946177;28;119911;-75
2022/11/16 00:43:49;;;;;;;91.67;47.10;;;;;;;13.83;68.24;100258.06;4931236;28;119911;-75
2022/11/16 00:46:15;;;;;;;90.77;46.97;;;;;;;13.81;68.04;100252.28;4941536;28;119715;-74
2022/11/16 00:48:41;;;;;;;84.53;44.93;;;;;;;13.82;67.78;100261.31;4942650;28;120664;-75
2022/11/16 00:51:07;;;;;;;81.38;43.72;;;;;;;13.83;68.01;100255.31;4943435;28;120063;-74
2022/11/16 00:53:34;;;;;;;79.05;42.83;;;;;;;13.75;67.94;100247.97;4943864;28;120732;-75
2022/11/16 00:56:00;;;;;;;75.70;40.90;;;;;;;13.81;68.30;100255.03;4942006;28;119887;-75
2022/11/16 00:58:28;;;;;;;72.72;39.35;;;;;;;13.83;68.18;100252.56;4930890;28;120515;-74
2022/11/16 01:01:06;;;;;;;68.30;39.50;;;;;;;13.81;68.31;100248.78;4942519;28;120434;-75
2022/11/16 01:03:34;;;;;;;74.93;40.13;;;;;;;13.83;68.42;100243.53;4941994;28;119907;-75
2022/11/16 01:06:06;;;;;;;68.72;39.33;;;;;;;13.83;67.72;100232.50;4924856;28;120110;-74
2022/11/16 01:08:32;;;;;;;72.90;39.30;;;;;;;13.85;67.93;100241.06;4921177;28;119909;-74
2022/11/16 01:12:07;;;;;;;70.93;39.42;;;;;;;13.86;67.91;100239.06;4942466;28;120690;-75
2022/11/16 01:13:46;;;;;;;65.70;37.90;;;;;;;13.85;67.51;100238.28;4947072;28;119842;-73
2022/11/16 01:16:18;;;;;;;68.93;38.20;;;;;;;13.83;67.68;100227.75;4939101;28;119821;-75
2022/11/16 01:18:48;;;;;;;63.50;36.63;;;;;;;13.81;67.81;100226.72;4942223;28;119634;-72
2022/11/16 01:21:13;;;;;;;72.50;38.65;;;;;;;13.81;67.93;100224.72;4947340;28;119839;-74
2022/11/16 01:23:39;;;;;;;68.93;38.40;;;;;;;13.86;67.51;100225.25;4942443;28;120637;-75
2022/11/16 01:26:05;;;;;;;70.77;38.70;;;;;;;13.85;67.83;100216.25;4936581;28;119988;-75
2022/11/16 01:28:34;;;;;;;70.65;38.25;;;;;;;13.90;67.37;100221.06;4939829;28;120271;-75
2022/11/16 01:31:00;;;;;;;69.13;37.78;;;;;;;13.92;67.51;100224.09;4925402;28;120629;-74
2022/11/16 01:33:28;;;;;;;68.13;37.53;;;;;;;13.91;67.33;100221.81;4943715;28;119471;-75
2022/11/16 01:35:54;;;;;;;65.22;37.92;;;;;;;13.90;67.34;100220.28;4910547;28;119847;-75
2022/11/16 01:38:22;;;;;;;66.30;37.13;;;;;;;13.82;67.19;100220.72;4922438;28;119573;-75
2022/11/16 01:40:48;;;;;;;65.60;36.72;;;;;;;13.83;67.55;100229.75;4943844;28;120253;-74
2022/11/16 01:43:22;;;;;;;63.90;36.92;;;;;;;13.83;67.41;100208.47;4941269;28;120129;-75
2022/11/16 01:45:49;;;;;;;66.30;36.60;;;;;;;13.89;67.44;100214.03;4936637;28;119863;-72
2022/11/16 01:48:19;;;;;;;63.97;36.45;;;;;;;13.93;66.99;100209.06;4944458;28;119954;-73
2022/11/16 01:50:46;;;;;;;63.88;36.33;;;;;;;13.92;67.35;100202.03;4942208;28;120454;-75
2022/11/16 01:53:12;;;;;;;65.73;37.57;;;;;;;13.95;67.16;100203.81;4931902;28;120929;-75
2022/11/16 01:55:47;;;;;;;66.22;38.05;;;;;;;13.96;66.82;100199.84;4943448;28;120105;-75
2022/11/16 01:58:24;;;;;;;64.05;36.47;;;;;;;13.97;66.76;100198.59;4939564;28;120388;-74
2022/11/16 02:01:24;;;;;;;62.45;36.47;;;;;;;13.95;66.63;100189.25;4930022;28;120033;-75
2022/11/16 02:03:54;;;;;;;64.28;36.95;;;;;;;13.96;66.79;100188.03;4929543;28;119822;-75
2022/11/16 02:06:30;;;;;;;64.53;36.63;;;;;;;13.92;66.59;100193.75;4942351;28;119937;-75
2022/11/16 02:12:30;;;;;;;64.07;35.60;;;;;;;13.88;66.83;100182.19;4942732;28;119472;-75
2022/11/16 02:15:23;;;;;;;58.80;35.10;;;;;;;13.85;66.89;100185.16;4936594;28;120069;-75
2022/11/16 02:18:26;;;;;;;57.08;33.65;;;;;;;13.82;66.52;100176.63;4926414;28;121059;-74
2022/11/16 02:21:19;;;;;;;58.37;32.80;;;;;;;13.80;66.78;100175.59;4925299;28;120294;-75
2022/11/16 02:23:57;;;;;;;55.83;31.80;;;;;;;13.71;66.60;100156.44;4936904;28;120064;-75
2022/11/16 02:27:04;;;;;;;53.38;31.40;;;;;;;13.77;67.17;100162.78;4942711;28;120826;-75
2022/11/16 02:29:41;;;;;;;54.00;30.55;;;;;;;13.79;66.83;100161.06;4895412;28;120285;-75
2022/11/16 02:32:18;;;;;;;52.13;30.15;;;;;;;13.80;66.59;100159.81;4940056;28;119953;-75
2022/11/16 02:35:12;;;;;;;54.53;30.33;;;;;;;13.85;66.72;100152.84;4940162;28;119575;-73
2022/11/16 02:37:44;;;;;;;56.97;31.25;;;;;;;13.88;67.02;100154.63;4932467;28;119890;-75
2022/11/16 02:40:14;;;;;;;54.85;30.17;;;;;;;13.89;66.60;100156.13;4942148;28;120192;-75
2022/11/16 02:42:53;;;;;;;56.08;30.02;;;;;;;13.87;66.55;100155.09;4934854;28;119577;-75
2022/11/16 02:45:35;;;;;;;50.80;27.83;;;;;;;13.85;66.73;100158.34;4937898;28;119831;-73
2022/11/16 02:48:07;;;;;;;52.90;28.40;;;;;;;13.81;66.51;100133.75;4936775;28;119967;-74
2022/11/16 02:50:35;;;;;;;50.25;26.83;;;;;;;13.77;66.65;100151.75;4925517;28;120376;-74
2022/11/16 02:53:02;;;;;;;43.53;25.67;;;;;;;13.73;66.60;100146.47;4950127;28;120457;-75
2022/11/16 02:55:33;;;;;;;45.83;25.60;;;;;;;13.65;66.75;100144.59;4945417;28;119932;-75
2022/11/16 02:58:05;;;;;;;46.10;25.27;;;;;;;13.72;66.82;100149.66;4942458;28;119880;-75
2022/11/16 03:00:59;;;;;;;47.97;25.17;;;;;;;13.72;66.79;100142.19;4943170;28;120158;-75
2022/11/16 03:03:41;;;;;;;41.72;24.25;;;;;;;13.75;66.49;100138.47;4942812;28;120883;-71
2022/11/16 03:06:20;;;;;;;44.17;23.83;;;;;;;13.74;66.12;100139.69;4946466;28;120307;-73
2022/11/16 03:09:26;;;;;;;44.40;23.00;;;;;;;13.75;66.10;100141.22;4928421;28;120022;-72
2022/11/16 03:11:58;;;;;;;45.15;23.80;;;;;;;13.72;65.93;100122.13;4934295;28;121148;-73
2022/11/16 03:14:32;;;;;;;38.30;22.63;;;;;;;13.74;66.20;100125.16;4944709;28;120456;-75
2022/11/16 03:17:00;;;;;;;41.07;22.27;;;;;;;13.77;65.85;100140.72;4930613;28;119429;-75
2022/11/16 03:19:36;;;;;;;37.92;22.58;;;;;;;13.78;65.77;100131.22;4926586;28;120156;-75
2022/11/16 03:22:10;;;;;;;38.05;21.90;;;;;;;13.77;66.17;100129.72;4943692;28;120032;-75
2022/11/16 03:24:38;;;;;;;38.42;22.35;;;;;;;13.77;66.02;100127.72;4944125;28;120338;-75
2022/11/16 03:27:34;;;;;;;41.28;21.95;;;;;;;13.75;65.51;100126.69;4944647;28;119769;-75
2022/11/16 03:30:19;;;;;;;39.58;21.70;;;;;;;13.77;65.85;100124.19;4928152;28;120451;-74
2022/11/16 03:32:58;;;;;;;42.93;22.33;;;;;;;13.75;65.21;100113.66;4942899;28;120629;-75
2022/11/16 03:35:31;;;;;;;39.63;22.23;;;;;;;13.70;65.74;100116.31;4938905;28;121016;-75
2022/11/16 03:38:02;;;;;;;38.67;22.10;;;;;;;13.71;65.59;100113.09;4941242;28;119771;-74
2022/11/16 03:40:32;;;;;;;39.33;21.80;;;;;;;13.72;65.66;100117.38;4912690;28;120823;-75
2022/11/16 03:43:01;;;;;;;40.15;21.85;;;;;;;13.71;65.50;100118.59;4927838;28;121595;-74
2022/11/16 03:45:28;;;;;;;40.08;21.60;;;;;;;13.68;65.66;100118.81;4941266;28;120615;-73
2022/11/16 03:47:54;;;;;;;40.70;22.48;;;;;;;13.66;65.87;100115.78;4943444;28;119795;-75
2022/11/16 03:50:21;;;;;;;37.47;20.83;;;;;;;13.71;65.34;100129.63;4944805;28;120046;-75
2022/11/16 03:52:47;;;;;;;39.00;21.92;;;;;;;13.72;65.48;100127.63;4928139;28;121924;-72
2022/11/16 03:55:13;;;;;;;39.80;21.90;;;;;;;13.73;65.07;100131.91;4943504;28;119842;-72
2022/11/16 03:57:41;;;;;;;39.47;21.40;;;;;;;13.71;64.96;100126.13;4944018;28;121180;-75
2022/11/16 04:00:11;;;;;;;41.83;21.67;;;;;;;13.70;65.15;100130.13;4948553;28;120099;-75
2022/11/16 04:02:40;;;;;;;45.05;22.60;;;;;;;13.65;64.96;100117.03;4936851;28;121849;-74
2022/11/16 04:24:48;;;;;;;40.30;20.50;;;;;;;13.69;64.85;100125.84;4947746;28;119898;-75
2022/11/16 04:30:02;;;;;;;37.70;20.08;;;;;;;13.61;64.40;100127.50;4942186;28;120065;-72
2022/11/16 04:38:00;;;;;;;36.30;19.83;;;;;;;13.59;64.63;100143.78;4944369;28;120011;-73
2022/11/16 04:40:30;;;;;;;38.97;20.87;;;;;;;13.61;64.72;100147.56;4910415;28;121040;-73
2022/11/16 04:43:02;;;;;;;36.90;19.88;;;;;;;13.62;64.62;100154.59;4940402;28;119593;-72
2022/11/16 04:48:19;;;;;;;42.23;21.53;;;;;;;13.65;64.98;100152.84;4945104;28;119997;-73
2022/11/16 04:50:46;;;;;;;41.33;22.30;;;;;;;13.66;64.67;100146.09;4923071;28;119873;-73
2022/11/16 04:53:13;;;;;;;36.33;20.83;;;;;;;13.64;65.08;100143.84;4936750;28;120190;-73
2022/11/16 04:55:44;;;;;;;45.78;22.10;;;;;;;13.67;64.85;100148.38;4950448;28;119846;-73
2022/11/16 04:58:12;;;;;;;45.63;22.07;;;;;;;13.70;64.58;100152.16;4925479;28;120083;-72
2022/11/16 05:00:37;;;;;;;41.50;22.13;;;;;;;13.70;65.11;100152.91;4941502;28;119980;-73
2022/11/16 05:03:04;;;;;;;39.63;21.52;;;;;;;13.73;65.02;100142.94;4943434;28;119964;-73
2022/11/16 05:05:30;;;;;;;40.33;22.13;;;;;;;13.70;64.83;100147.41;4940276;28;120358;-73
2022/11/16 05:07:57;;;;;;;38.65;22.13;;;;;;;13.67;65.07;100145.63;4941972;28;120224;-73
2022/11/16 05:10:26;;;;;;;39.15;23.00;;;;;;;13.71;65.02;100140.66;4945480;28;120324;-73
2022/11/16 05:12:53;;;;;;;46.30;22.67;;;;;;;13.73;65.02;100132.69;4942324;28;119646;-72
2022/11/16 05:15:19;;;;;;;45.85;24.40;;;;;;;13.76;65.13;100131.72;4926636;28;122110;-73
2022/11/16 05:17:46;;;;;;;46.22;24.08;;;;;;;13.76;64.92;100120.69;4942044;28;119630;-73
2022/11/16 05:23:03;;;;;;;45.50;23.90;;;;;;;13.71;65.31;100129.63;4940427;28;119968;-73
2022/11/16 05:25:34;;;;;;;48.08;24.88;;;;;;;13.73;65.43;100115.38;4942634;28;119488;-72
2022/11/16 05:28:01;;;;;;;49.15;25.92;;;;;;;13.72;65.17;100124.88;4942683;28;120289;-73
2022/11/16 05:30:29;;;;;;;46.75;26.35;;;;;;;13.70;65.42;100119.84;4941497;28;119515;-73
2022/11/16 05:32:57;;;;;;;51.83;27.83;;;;;;;13.61;65.16;100111.75;4944426;28;119873;-73
2022/11/16 05:35:24;;;;;;;46.28;25.75;;;;;;;13.57;65.68;100111.19;4942775;28;120004;-73
2022/11/16 05:37:50;;;;;;;46.50;27.55;;;;;;;13.55;66.21;100112.94;4943105;28;119930;-71
2022/11/16 05:40:19;;;;;;;50.08;27.92;;;;;;;13.50;66.40;100101.38;4921324;28;119786;-73
2022/11/16 05:42:56;;;;;;;53.03;28.90;;;;;;;13.46;66.50;100109.06;4922107;28;120452;-73
2022/11/16 05:45:23;;;;;;;52.17;28.77;;;;;;;13.46;66.87;100100.78;4927471;28;120204;-73
2022/11/16 05:47:48;;;;;;;53.50;29.73;;;;;;;13.49;66.58;100091.59;4925613;28;120016;-73
2022/11/16 05:50:15;;;;;;;58.22;29.65;;;;;;;13.49;66.55;100090.84;4942040;28;120537;-73
2022/11/16 05:52:45;;;;;;;58.17;30.35;;;;;;;13.50;66.46;100106.13;4944276;28;120693;-73
2022/11/16 05:55:11;;;;;;;50.93;30.70;;;;;;;13.52;66.96;100120.94;4945611;28;120005;-73
2022/11/16 05:57:41;;;;;;;56.40;31.10;;;;;;;13.48;66.59;100112.09;4941904;28;120083;-73
2022/11/16 06:00:08;;;;;;;55.80;29.83;;;;;;;13.45;67.08;100109.53;4926455;28;121331;-73
2022/11/16 06:02:41;;;;;;;55.95;31.35;;;;;;;13.45;66.90;100104.03;4943537;28;120043;-73
2022/11/16 06:05:09;;;;;;;57.45;30.48;;;;;;;13.42;66.93;100105.75;4937222;28;120536;-73
2022/11/16 06:07:35;;;;;;;57.50;31.95;;;;;;;13.38;66.94;100107.97;4940546;28;120977;-73
2022/11/16 06:10:01;;;;;;;62.47;31.50;;;;;;;13.38;67.41;100116.25;4942236;28;119869;-73
2022/11/16 06:12:30;;;;;;;56.92;31.50;;;;;;;13.37;67.29;100114.72;4942852;28;119932;-73
2022/11/16 06:14:55;;;;;;;59.60;31.30;;;;;;;13.35;67.32;100110.94;4945594;28;120071;-73
2022/11/16 06:17:21;;;;;;;56.50;31.13;;;;;;;13.34;67.27;100114.94;4943947;28;119340;-73
2022/11/16 06:20:07;;;;;;;62.00;31.67;;;;;;;13.35;67.56;100119.22;4942447;28;120135;-73
2022/11/16 06:22:33;;;;;;;60.80;30.90;;;;;;;13.36;67.09;100120.72;4941685;28;120085;-73
2022/11/16 06:24:59;;;;;;;59.67;31.65;;;;;;;13.35;67.68;100110.94;4923994;28;120444;-73
2022/11/16 06:27:26;;;;;;;57.90;31.20;;;;;;;13.33;67.44;100113.44;4942790;28;119830;-73
2022/11/16 06:29:51;;;;;;;58.90;31.33;;;;;;;13.33;67.72;100107.91;4945691;28;120281;-73
2022/11/16 06:32:17;;;;;;;61.60;32.75;;;;;;;13.37;67.69;100114.72;4946407;28;120485;-73
2022/11/16 06:34:43;;;;;;;58.42;30.55;;;;;;;13.40;67.88;100107.50;4943602;28;120602;-73
2022/11/16 06:37:10;;;;;;;56.95;31.23;;;;;;;13.39;67.69;100106.72;4949005;28;121097;-73
2022/11/16 06:39:43;;;;;;;58.95;31.48;;;;;;;13.36;67.55;100117.97;4936873;28;119937;-73
2022/11/16 06:42:09;;;;;;;55.50;31.13;;;;;;;13.33;67.57;100114.19;4942706;28;122160;-73
2022/11/16 06:44:36;;;;;;;57.65;31.40;;;;;;;13.32;67.52;100107.16;4944915;28;119826;-73
2022/11/16 06:47:03;;;;;;;59.35;31.25;;;;;;;13.29;67.73;100113.63;4954171;28;119872;-73
2022/11/16 06:49:29;;;;;;;58.92;31.17;;;;;;;13.30;68.26;100119.91;4925399;28;122321;-73
2022/11/16 06:52:02;;;;;;;52.97;30.27;;;;;;;13.33;67.77;100108.66;4942608;28;120562;-73
2022/11/16 06:54:28;;;;;;;51.17;30.15;;;;;;;13.35;68.02;100117.22;4945448;28;120328;-73
2022/11/16 06:56:54;;;;;;;55.95;30.55;;;;;;;13.33;67.48;100105.91;4941896;28;120102;-73
2022/11/16 06:59:20;;;;;;;55.42;30.98;;;;;;;13.33;67.68;100108.66;4949200;28;120482;-73
2022/11/16 07:01:47;;;;;;;60.47;31.45;;;;;;;13.33;67.70;100116.19;4944880;28;120406;-73
2022/11/16 07:04:14;;;;;;;59.58;31.50;;;;;;;13.31;67.70;100108.41;4944177;28;119700;-73
2022/11/16 07:06:46;;;;;;;59.23;31.53;;;;;;;13.30;67.36;100120.66;4945394;28;120265;-72
2022/11/16 07:09:14;;;;;;;58.70;31.60;;;;;;;13.28;67.87;100117.63;4927584;28;121762;-72
2022/11/16 07:11:41;;;;;;;58.20;31.45;;;;;;;13.28;67.84;100120.38;4944193;28;119699;-73
2022/11/16 07:14:07;;;;;;;57.08;31.35;;;;;;;13.30;67.28;100131.69;4942689;28;119944;-73
2022/11/16 07:16:36;;;;;;;56.08;30.50;;;;;;;13.29;67.40;100121.91;4944784;28;119890;-73
2022/11/16 07:19:04;;;;;;;55.58;30.77;;;;;;;13.25;67.56;100115.84;4929263;28;119781;-72
2022/11/16 07:21:32;;;;;;;57.03;31.15;;;;;;;13.27;67.74;100118.13;4947753;28;119916;-73
2022/11/16 07:24:01;;;;;;;57.08;31.08;;;;;;;13.26;67.62;100114.59;4920719;28;119844;-73
2022/11/16 07:26:28;;;;;;;59.93;32.43;;;;;;;13.28;67.69;100119.63;4946102;28;119951;-72
2022/11/16 07:29:01;;;;;;;56.95;31.70;;;;;;;13.27;67.60;100116.13;4938076;28;119818;-73
2022/11/16 07:31:27;;;;;;;59.80;31.27;;;;;;;13.31;67.27;100116.66;4925883;28;120071;-73
2022/11/16 07:34:28;;;;;;;54.17;31.67;;;;;;;13.29;67.11;100121.16;4883400;28;120758;-73
2022/11/16 07:37:30;;;;;;;55.90;31.73;;;;;;;13.26;67.88;100111.84;4950820;28;120535;-73
2022/11/16 07:39:56;;;;;;;57.65;31.40;;;;;;;13.28;67.32;100117.63;4938634;28;120134;-73
2022/11/16 07:42:25;;;;;;;53.70;31.75;;;;;;;13.27;67.83;100124.38;4943210;28;120872;-73
2022/11/16 07:45:00;;;;;;;56.72;32.00;;;;;;;13.31;67.67;100133.19;4941642;28;120430;-73
2022/11/16 07:47:36;;;;;;;55.97;31.57;;;;;;;13.34;67.47;100139.72;4941844;28;121570;-74
2022/11/16 07:50:04;;;;;;;57.23;32.03;;;;;;;13.38;67.39;100132.75;4941672;28;120076;-73
2022/11/16 07:52:31;;;;;;;57.00;30.88;;;;;;;13.40;67.10;100135.03;4940231;28;120096;-72
2022/11/16 07:55:00;;;;;;;59.63;30.65;;;;;;;13.44;67.07;100130.84;4913943;28;120237;-73
2022/11/16 07:57:29;;;;;;;53.10;29.52;;;;;;;13.34;67.60;100118.44;4939842;28;120317;-72
2022/11/16 07:59:58;;;;;;;50.63;27.67;;;;;;;13.47;66.92;100129.09;4940844;28;120079;-71
2022/11/16 08:02:24;;;;;;;47.97;26.67;;;;;;;13.44;67.03;100125.31;4941932;28;119444;-73
2022/11/16 08:04:51;;;;;;;44.63;26.30;;;;;;;13.43;67.02;100134.81;4923836;28;121813;-73
2022/11/16 08:07:21;;;;;;;43.10;26.23;;;;;;;13.39;66.76;100134.28;4945290;28;119973;-72
2022/11/16 08:09:51;;;;;;;44.03;24.85;;;;;;;13.36;66.63;100135.25;4939957;28;119672;-72
2022/11/16 08:12:17;;;;;;;42.78;24.98;;;;;;;13.38;66.65;100143.78;4924014;28;120608;-73
2022/11/16 08:14:43;;;;;;;41.57;23.50;;;;;;;13.40;66.53;100138.56;4942251;28;120018;-72
2022/11/16 08:17:14;;;;;;;39.80;22.90;;;;;;;13.42;66.21;100127.81;4924805;28;122333;-72
2022/11/16 08:19:41;;;;;;;38.38;22.05;;;;;;;13.46;66.43;100122.84;4932370;28;120322;-73
2022/11/16 08:22:08;;;;;;;41.47;21.57;;;;;;;13.51;66.55;100132.44;4924753;28;119990;-73
2022/11/16 08:24:34;;;;;;;36.30;20.25;;;;;;;13.59;65.99;100132.75;4942083;28;120205;-73
2022/11/16 08:27:00;;;;;;;36.40;18.55;;;;;;;13.64;65.38;100129.31;4945167;28;120352;-72
2022/11/16 08:29:26;;;;;;;29.23;17.60;;;;;;;13.67;65.14;100131.09;4938522;28;120451;-72
2022/11/16 08:31:53;;;;;;;30.00;16.45;;;;;;;13.67;64.89;100131.84;4939001;28;119603;-73
2022/11/16 08:34:20;;;;;;;30.92;17.23;;;;;;;13.73;64.59;100137.44;4938121;28;119923;-73
2022/11/16 08:37:10;;;;;;;29.08;16.02;;;;;;;13.77;64.35;100144.25;4938506;28;119898;-72
2022/11/16 08:39:40;;;;;;;35.43;17.30;;;;;;;13.79;64.50;100133.50;4938702;28;120178;-72
2022/11/16 08:42:07;;;;;;;33.65;16.30;;;;;;;13.85;63.92;100147.31;4939723;28;119927;-73
2022/11/16 08:45:07;;;;;;;31.25;17.05;;;;;;;13.82;63.40;100135.28;4918068;28;120427;-73
2022/11/16 08:47:35;;;;;;;31.08;16.23;;;;;;;13.76;63.70;100134.47;4923837;28;120151;-72
2022/11/16 08:50:22;;;;;;;31.17;16.52;;;;;;;13.80;63.24;100129.50;4942012;28;120041;-73
2022/11/16 08:52:48;;;;;;;31.45;15.55;;;;;;;13.78;63.48;100136.72;4938488;28;120009;-73
2022/11/16 08:55:16;;;;;;;27.23;15.03;;;;;;;13.81;63.27;100138.50;4939661;28;119983;-73
2022/11/16 08:57:42;;;;;;;29.77;15.45;;;;;;;13.76;62.92;100141.97;4938724;28;120028;-72
2022/11/16 09:00:10;;;;;;;29.42;15.88;;;;;;;13.74;62.63;100134.19;4940087;28;120116;-73
2022/11/16 09:02:37;;;;;;;33.17;15.98;;;;;;;13.79;63.15;100130.72;4941067;28;120324;-73
2022/11/16 09:05:04;;;;;;;29.60;14.60;;;;;;;13.79;62.43;100138.25;4940760;28;121402;-72
2022/11/16 09:07:30;;;;;;;30.88;14.75;;;;;;;13.79;62.50;100138.25;4939004;28;120288;-72
2022/11/16 09:09:56;;;;;;;24.65;13.40;;;;;;;13.77;62.21;100135.22;4941750;28;119374;-73
2022/11/16 09:12:21;;;;;;;24.60;14.33;;;;;;;13.73;61.86;100135.44;4946275;28;119714;-72
2022/11/16 09:14:47;;;;;;;23.63;13.43;;;;;;;13.73;62.19;100145.69;4942546;28;120219;-72
2022/11/16 09:17:13;;;;;;;25.57;13.63;;;;;;;13.71;62.38;100139.91;4938432;28;120091;-73
2022/11/16 09:19:39;;;;;;;24.55;12.68;;;;;;;13.72;61.88;100133.91;4939910;28;119979;-73
2022/11/16 09:22:04;;;;;;;24.48;12.68;;;;;;;13.72;62.14;100138.66;4941677;28;119687;-72
2022/11/16 09:24:30;;;;;;;20.48;11.00;;;;;;;13.72;61.68;100141.41;4940391;28;122104;-73
2022/11/16 09:27:00;;;;;;;18.40;11.10;;;;;;;13.75;61.66;100145.97;4940027;28;120143;-73
2022/11/16 09:29:26;;;;;;;20.00;11.02;;;;;;;13.73;61.20;100151.22;4939868;28;120420;-72
2022/11/16 09:31:55;;;;;;;19.53;10.70;;;;;;;13.70;61.36;100147.41;4923505;28;120657;-73
2022/11/16 09:34:20;;;;;;;23.20;9.53;;;;;;;13.70;61.40;100157.66;4942632;28;119829;-72
2022/11/16 09:37:19;;;;;;;20.58;8.70;;;;;;;13.73;61.36;100156.72;4895070;28;120424;-73
2022/11/16 09:39:44;;;;;;;15.50;7.97;;;;;;;13.70;61.10;100152.16;4937822;28;119924;-72
2022/11/16 09:42:22;;;;;;;19.13;7.90;;;;;;;13.72;60.72;100164.25;4939678;28;120094;-73
2022/11/16 09:45:06;;;;;;;16.20;7.05;;;;;;;13.71;60.73;100168.22;4925828;28;120322;-73
2022/11/16 09:47:38;;;;;;;13.15;6.65;;;;;;;13.68;60.30;100182.97;4923111;28;119859;-73
2022/11/16 09:50:06;;;;;;;14.53;6.70;;;;;;;13.66;60.36;100162.63;4939877;28;119861;-73
2022/11/16 09:52:57;;;;;;;12.45;5.97;;;;;;;13.65;60.66;100178.41;4923501;28;120578;-71
2022/11/16 09:55:51;;;;;;;14.88;5.97;;;;;;;13.63;59.87;100175.38;4934797;28;119899;-73
2022/11/16 09:58:24;;;;;;;13.88;6.03;;;;;;;13.63;60.27;100188.41;4943376;28;120741;-72
2022/11/16 10:00:58;;;;;;;12.90;5.80;;;;;;;13.66;60.23;100184.69;4940814;28;119545;-73
2022/11/16 10:03:26;;;;;;;12.20;5.97;;;;;;;13.65;60.37;100177.66;4940080;28;120008;-73
2022/11/16 10:06:04;;;;;;;14.85;5.95;;;;;;;13.68;60.33;100180.19;4936322;28;122148;-73
2022/11/16 10:08:46;;;;;;;17.70;6.75;;;;;;;13.65;60.24;100167.41;4940346;28;119775;-72
2022/11/16 10:11:20;;;;;;;16.08;6.68;;;;;;;13.68;60.60;100173.94;4941074;28;120032;-73
2022/11/16 10:13:58;;;;;;;15.35;6.97;;;;;;;13.66;60.53;100179.19;4937378;28;120349;-73
2022/11/16 10:16:39;;;;;;;18.85;7.65;;;;;;;13.65;60.24;100178.41;4940051;28;120216;-73
2022/11/16 10:19:27;;;;;;;17.85;7.53;;;;;;;13.64;60.50;100184.41;4943657;28;119840;-73
2022/11/16 10:22:05;;;;;;;16.17;7.72;;;;;;;13.64;60.63;100184.41;4937204;28;120025;-73
2022/11/16 10:24:39;;;;;;;17.77;8.23;;;;;;;13.61;60.53;100171.59;4940003;28;120844;-73
2022/11/16 10:27:49;;;;;;;19.80;8.07;;;;;;;13.61;60.46;100177.13;4920779;28;121634;-73
2022/11/16 10:30:20;;;;;;;17.50;7.67;;;;;;;13.61;60.61;100188.13;4938200;28;120331;-72
2022/11/16 10:32:46;;;;;;;19.38;7.90;;;;;;;13.62;60.54;100175.88;4939597;28;120832;-73
2022/11/16 10:35:46;;;;;;;17.85;8.00;;;;;;;13.64;60.68;100170.63;4936799;28;119585;-73
2022/11/16 10:38:16;;;;;;;17.55;8.30;;;;;;;13.69;60.61;100183.72;4925034;28;120003;-73
2022/11/16 10:41:21;;;;;;;17.27;8.25;;;;;;;13.69;61.08;100191.97;4859363;28;120145;-73
2022/11/16 10:43:48;;;;;;;15.07;8.65;;;;;;;13.69;60.67;100198.25;4846276;28;120021;-72
2022/11/16 10:46:25;;;;;;;18.00;8.40;;;;;;;13.67;60.61;100183.44;4859848;28;119573;-72
2022/11/16 10:49:18;;;;;;;17.95;8.57;;;;;;;13.70;61.19;100191.50;4859609;28;120062;-72
2022/11/16 10:51:44;;;;;;;16.07;8.70;;;;;;;13.68;60.99;100188.47;4858141;28;119956;-73
2022/11/16 10:54:14;;;;;;;16.38;8.63;;;;;;;13.70;61.09;100191.50;4859381;28;119926;-73
2022/11/16 10:56:44;;;;;;;16.88;9.02;;;;;;;13.72;60.84;100177.22;4842977;28;120435;-72
2022/11/16 10:59:12;;;;;;;17.17;8.65;;;;;;;13.69;60.38;100183.72;4857580;28;119826;-73
2022/11/16 11:02:18;;;;;;;15.90;8.40;;;;;;;13.66;60.39;100177.19;4844916;28;120220;-72
2022/11/16 11:04:37;;;;;;;17.43;8.57;;;;;;;13.62;60.61;100189.66;4856946;28;120425;-72
2022/11/16 11:07:29;;;;;;;19.35;8.50;;;;;;;13.58;60.85;100189.88;4843326;28;119846;-72
2022/11/16 11:09:55;;;;;;;18.30;8.43;;;;;;;13.63;60.87;100182.91;4840688;28;120207;-73
2022/11/16 11:12:39;;;;;;;18.50;7.82;;;;;;;13.67;60.36;100197.22;4857547;28;120835;-72
2022/11/16 11:15:17;;;;;;;15.32;8.25;;;;;;;13.65;60.42;100192.19;4863309;28;120112;-72
2022/11/16 11:17:46;;;;;;;15.80;7.85;;;;;;;13.64;60.62;100195.44;4903288;28;120173;-72
2022/11/16 11:20:30;;;;;;;16.95;7.90;;;;;;;13.65;60.48;100185.94;4933084;28;120230;-72
2022/11/16 11:23:20;;;;;;;17.03;7.53;;;;;;;13.64;60.76;100189.94;4944205;28;120176;-72
2022/11/16 11:25:52;;;;;;;17.33;7.88;;;;;;;13.62;60.56;100184.13;4941687;28;120405;-72
2022/11/16 11:28:30;;;;;;;18.73;8.18;;;;;;;13.63;60.33;100191.94;4943833;28;120167;-72
2022/11/16 11:31:24;;;;;;;13.60;7.50;;;;;;;13.61;60.37;100193.66;4945183;28;120447;-73
2022/11/16 11:34:42;;;;;;;16.20;7.95;;;;;;;13.56;60.34;100186.09;4943503;28;120038;-73
2022/11/16 11:37:16;;;;;;;17.10;8.17;;;;;;;13.56;60.94;100188.84;4841487;28;120333;-72
2022/11/16 11:39:42;;;;;;;17.73;7.97;;;;;;;13.58;60.50;100173.34;4843280;28;119986;-73
2022/11/16 11:42:13;;;;;;;15.50;7.67;;;;;;;13.58;60.60;100189.88;4844173;28;120278;-73
2022/11/16 11:44:48;;;;;;;14.77;7.60;;;;;;;13.61;60.86;100183.38;4842804;28;120177;-71
2022/11/16 11:47:20;;;;;;;17.20;8.15;;;;;;;13.63;60.81;100180.16;4833025;28;120712;-72
2022/11/16 11:49:57;;;;;;;16.02;7.68;;;;;;;13.61;60.65;100186.13;4824407;28;120640;-72
2022/11/16 11:52:37;;;;;;;20.85;7.90;;;;;;;13.64;60.77;100187.16;4839914;28;119760;-73
2022/11/16 11:55:06;;;;;;;16.83;8.18;;;;;;;13.64;61.18;100178.91;4846823;28;120394;-73
2022/11/16 11:57:37;;;;;;;14.73;8.30;;;;;;;13.61;60.92;100180.63;4829244;28;120441;-74
2022/11/16 12:00:08;;;;;;;15.80;7.68;;;;;;;13.54;61.04;100196.81;4841470;28;120298;-70
2022/11/16 12:03:05;;;;;;;16.83;8.25;;;;;;;13.50;61.20;100188.78;4844030;28;119626;-72